Providence, Rhode Island
Traffic Map
Current Weather Conditions
Providence, Rhode Island
Clear
Clear
72°
Feels Like: 72°
Wind Chill: 72° Ceiling: Unl
Heat Index: 72° Visibility: 10mi
Dew Point: 65° Wind: 7mph
Humidity: 78% Direction: 240° (WSW)
Pressure: 30in Gusts: 0mph
Raw Report DataKPVD 261251Z 24006KT 10SM CLR 22/18 A3000 RMK AO2 SLP159 T02220183
Traffic Incident Summary
Active as of:
Severity:
Category:
InformationThere was an issue retrieving the traffic information for this location. Please try a different location or try again shortly.
Advertisements
Track Severe Weather on mobile